sensor_id;sensor_type;location;lat;lon;timestamp;temperature;humidity
20288;DHT22;10303;51.960;8.372;2024-01-16T00:00:09;2.00;99.90
20288;DHT22;10303;51.960;8.372;2024-01-16T00:02:35;2.10;99.90
20288;DHT22;10303;51.960;8.372;2024-01-16T00:05:01;1.90;99.90
20288;DHT22;10303;51.960;8.372;2024-01-16T00:07:28;2.00;99.90
20288;DHT22;10303;51.960;8.372;2024-01-16T00:09:54;2.10;99.90
20288;DHT22;10303;51.960;8.372;2024-01-16T00:12:20;2.20;99.90
20288;DHT22;10303;51.960;8.372;2024-01-16T00:14:46;2.00;99.90
20288;DHT22;10303;51.960;8.372;2024-01-16T00:17:12;1.90;99.90
20288;DHT22;10303;51.960;8.372;2024-01-16T00:19:38;2.20;99.90
20288;DHT22;10303;51.960;8.372;2024-01-16T00:22:04;1.70;99.90
20288;DHT22;10303;51.960;8.372;2024-01-16T00:24:30;1.70;99.90
20288;DHT22;10303;51.960;8.372;2024-01-16T00:26:56;1.70;99.90
20288;DHT22;10303;51.960;8.372;2024-01-16T00:29:22;1.70;99.90
20288;DHT22;10303;51.960;8.372;2024-01-16T00:31:49;1.70;99.90
20288;DHT22;10303;51.960;8.372;2024-01-16T00:34:15;1.70;99.90
20288;DHT22;10303;51.960;8.372;2024-01-16T00:36:41;1.50;99.90
20288;DHT22;10303;51.960;8.372;2024-01-16T00:39:07;1.50;99.90
20288;DHT22;10303;51.960;8.372;2024-01-16T00:41:33;1.90;99.90
20288;DHT22;10303;51.960;8.372;2024-01-16T00:43:59;1.70;99.90
20288;DHT22;10303;51.960;8.372;2024-01-16T00:46:25;1.90;99.90
20288;DHT22;10303;51.960;8.372;2024-01-16T00:48:51;1.70;99.90
20288;DHT22;10303;51.960;8.372;2024-01-16T00:51:17;1.70;99.90
20288;DHT22;10303;51.960;8.372;2024-01-16T00:53:44;1.70;99.90
20288;DHT22;10303;51.960;8.372;2024-01-16T00:56:10;1.80;99.90
20288;DHT22;10303;51.960;8.372;2024-01-16T00:58:38;1.80;99.90
20288;DHT22;10303;51.960;8.372;2024-01-16T01:01:04;1.90;99.90
20288;DHT22;10303;51.960;8.372;2024-01-16T01:03:30;2.10;99.90
20288;DHT22;10303;51.960;8.372;2024-01-16T01:05:56;1.90;99.90
20288;DHT22;10303;51.960;8.372;2024-01-16T01:08:23;2.10;99.90
20288;DHT22;10303;51.960;8.372;2024-01-16T01:10:49;1.90;99.90
20288;DHT22;10303;51.960;8.372;2024-01-16T01:13:15;1.80;99.90
20288;DHT22;10303;51.960;8.372;2024-01-16T01:15:41;1.90;99.90
20288;DHT22;10303;51.960;8.372;2024-01-16T01:18:07;1.90;99.90
20288;DHT22;10303;51.960;8.372;2024-01-16T01:20:33;1.90;99.90
20288;DHT22;10303;51.960;8.372;2024-01-16T01:22:59;2.10;99.90
20288;DHT22;10303;51.960;8.372;2024-01-16T01:25:25;2.10;99.90
20288;DHT22;10303;51.960;8.372;2024-01-16T01:27:52;2.30;99.90
20288;DHT22;10303;51.960;8.372;2024-01-16T01:30:18;2.10;99.90
20288;DHT22;10303;51.960;8.372;2024-01-16T01:32:43;2.40;99.90
20288;DHT22;10303;51.960;8.372;2024-01-16T01:35:09;2.40;99.90
20288;DHT22;10303;51.960;8.372;2024-01-16T01:37:37;2.60;99.90
20288;DHT22;10303;51.960;8.372;2024-01-16T01:40:04;2.70;99.90
20288;DHT22;10303;51.960;8.372;2024-01-16T01:42:30;2.50;99.90
20288;DHT22;10303;51.960;8.372;2024-01-16T01:44:56;2.70;99.90
20288;DHT22;10303;51.960;8.372;2024-01-16T01:47:22;2.30;99.90
20288;DHT22;10303;51.960;8.372;2024-01-16T01:49:48;2.10;99.90
20288;DHT22;10303;51.960;8.372;2024-01-16T01:52:15;2.20;99.90
20288;DHT22;10303;51.960;8.372;2024-01-16T01:54:44;2.50;99.90
20288;DHT22;10303;51.960;8.372;2024-01-16T01:57:11;2.50;99.90
20288;DHT22;10303;51.960;8.372;2024-01-16T01:59:37;2.20;99.90
20288;DHT22;10303;51.960;8.372;2024-01-16T02:02:04;2.20;99.90
20288;DHT22;10303;51.960;8.372;2024-01-16T02:04:31;2.00;99.90
20288;DHT22;10303;51.960;8.372;2024-01-16T02:06:58;2.00;99.90
20288;DHT22;10303;51.960;8.372;2024-01-16T02:09:24;2.10;99.90
20288;DHT22;10303;51.960;8.372;2024-01-16T02:11:50;2.40;99.90
20288;DHT22;10303;51.960;8.372;2024-01-16T02:14:16;2.10;99.90
20288;DHT22;10303;51.960;8.372;2024-01-16T02:16:42;2.20;99.90
20288;DHT22;10303;51.960;8.372;2024-01-16T02:19:10;2.30;99.90
20288;DHT22;10303;51.960;8.372;2024-01-16T02:21:42;2.40;99.90
20288;DHT22;10303;51.960;8.372;2024-01-16T02:24:11;2.40;99.90
20288;DHT22;10303;51.960;8.372;2024-01-16T02:26:38;2.40;99.90
20288;DHT22;10303;51.960;8.372;2024-01-16T02:29:05;2.20;99.90
20288;DHT22;10303;51.960;8.372;2024-01-16T02:31:31;2.40;99.90
20288;DHT22;10303;51.960;8.372;2024-01-16T02:34:01;2.50;99.90
20288;DHT22;10303;51.960;8.372;2024-01-16T02:36:28;2.30;99.90
20288;DHT22;10303;51.960;8.372;2024-01-16T02:38:55;2.10;99.90
20288;DHT22;10303;51.960;8.372;2024-01-16T02:41:21;2.10;99.90
20288;DHT22;10303;51.960;8.372;2024-01-16T02:43:47;2.10;99.90
20288;DHT22;10303;51.960;8.372;2024-01-16T02:46:16;2.30;99.90
20288;DHT22;10303;51.960;8.372;2024-01-16T02:48:43;2.00;99.90
20288;DHT22;10303;51.960;8.372;2024-01-16T02:51:09;2.10;99.90
20288;DHT22;10303;51.960;8.372;2024-01-16T02:53:35;2.20;99.90
20288;DHT22;10303;51.960;8.372;2024-01-16T02:56:01;2.10;99.90
20288;DHT22;10303;51.960;8.372;2024-01-16T02:58:28;2.20;99.90
20288;DHT22;10303;51.960;8.372;2024-01-16T03:00:55;2.10;99.90
20288;DHT22;10303;51.960;8.372;2024-01-16T03:03:21;2.10;99.90
20288;DHT22;10303;51.960;8.372;2024-01-16T03:05:47;2.40;99.90
20288;DHT22;10303;51.960;8.372;2024-01-16T03:08:13;2.40;99.90
20288;DHT22;10303;51.960;8.372;2024-01-16T03:10:39;2.60;99.90
20288;DHT22;10303;51.960;8.372;2024-01-16T03:13:06;2.30;99.90
20288;DHT22;10303;51.960;8.372;2024-01-16T03:15:31;2.70;99.90
20288;DHT22;10303;51.960;8.372;2024-01-16T03:17:58;2.40;99.90
20288;DHT22;10303;51.960;8.372;2024-01-16T03:20:25;2.30;99.90
20288;DHT22;10303;51.960;8.372;2024-01-16T03:22:52;2.20;99.90
20288;DHT22;10303;51.960;8.372;2024-01-16T03:25:18;2.10;99.90
20288;DHT22;10303;51.960;8.372;2024-01-16T03:27:45;2.20;99.90
20288;DHT22;10303;51.960;8.372;2024-01-16T03:30:11;2.00;99.90
20288;DHT22;10303;51.960;8.372;2024-01-16T03:32:38;2.10;99.90
20288;DHT22;10303;51.960;8.372;2024-01-16T03:35:05;2.30;99.90
20288;DHT22;10303;51.960;8.372;2024-01-16T03:37:32;2.40;99.90
20288;DHT22;10303;51.960;8.372;2024-01-16T03:39:58;2.70;99.90
20288;DHT22;10303;51.960;8.372;2024-01-16T03:42:24;2.40;99.90
20288;DHT22;10303;51.960;8.372;2024-01-16T03:44:50;2.10;99.90
20288;DHT22;10303;51.960;8.372;2024-01-16T03:47:17;2.10;99.90
20288;DHT22;10303;51.960;8.372;2024-01-16T03:49:43;2.30;99.90
20288;DHT22;10303;51.960;8.372;2024-01-16T03:52:09;2.30;99.90
20288;DHT22;10303;51.960;8.372;2024-01-16T03:54:35;2.50;99.90
20288;DHT22;10303;51.960;8.372;2024-01-16T03:57:01;3.00;99.90
20288;DHT22;10303;51.960;8.372;2024-01-16T03:59:27;2.70;99.90
20288;DHT22;10303;51.960;8.372;2024-01-16T04:01:53;2.80;99.90
20288;DHT22;10303;51.960;8.372;2024-01-16T04:04:18;2.70;99.90
20288;DHT22;10303;51.960;8.372;2024-01-16T04:06:46;2.70;99.90
20288;DHT22;10303;51.960;8.372;2024-01-16T04:09:12;2.90;99.90
20288;DHT22;10303;51.960;8.372;2024-01-16T04:11:40;2.80;99.90
20288;DHT22;10303;51.960;8.372;2024-01-16T04:14:06;2.80;99.90
20288;DHT22;10303;51.960;8.372;2024-01-16T04:16:32;2.70;99.90
20288;DHT22;10303;51.960;8.372;2024-01-16T04:18:58;2.60;99.90
20288;DHT22;10303;51.960;8.372;2024-01-16T04:21:25;2.70;99.90
20288;DHT22;10303;51.960;8.372;2024-01-16T04:23:51;2.40;99.90
20288;DHT22;10303;51.960;8.372;2024-01-16T04:26:17;2.40;99.90
20288;DHT22;10303;51.960;8.372;2024-01-16T04:28:43;2.90;99.90
20288;DHT22;10303;51.960;8.372;2024-01-16T04:31:09;2.50;99.90
20288;DHT22;10303;51.960;8.372;2024-01-16T04:33:38;2.50;99.90
20288;DHT22;10303;51.960;8.372;2024-01-16T04:36:05;2.60;99.90
20288;DHT22;10303;51.960;8.372;2024-01-16T04:38:32;2.40;99.90
20288;DHT22;10303;51.960;8.372;2024-01-16T04:41:04;2.40;99.90
20288;DHT22;10303;51.960;8.372;2024-01-16T04:43:30;2.20;99.90
20288;DHT22;10303;51.960;8.372;2024-01-16T04:45:56;2.30;99.90
20288;DHT22;10303;51.960;8.372;2024-01-16T04:48:22;2.60;99.90
20288;DHT22;10303;51.960;8.372;2024-01-16T04:50:48;3.00;99.90
20288;DHT22;10303;51.960;8.372;2024-01-16T04:53:14;2.60;99.90
20288;DHT22;10303;51.960;8.372;2024-01-16T04:55:40;2.90;99.90
20288;DHT22;10303;51.960;8.372;2024-01-16T04:58:07;2.70;99.90
20288;DHT22;10303;51.960;8.372;2024-01-16T05:00:33;2.80;99.90
20288;DHT22;10303;51.960;8.372;2024-01-16T05:02:59;2.60;99.90
20288;DHT22;10303;51.960;8.372;2024-01-16T05:05:25;2.60;99.90
20288;DHT22;10303;51.960;8.372;2024-01-16T05:07:51;2.70;99.90
20288;DHT22;10303;51.960;8.372;2024-01-16T05:10:17;2.90;99.90
20288;DHT22;10303;51.960;8.372;2024-01-16T05:12:43;3.00;99.90
20288;DHT22;10303;51.960;8.372;2024-01-16T05:15:10;3.00;99.90
20288;DHT22;10303;51.960;8.372;2024-01-16T05:17:40;3.00;99.90
20288;DHT22;10303;51.960;8.372;2024-01-16T05:20:06;2.90;99.90
20288;DHT22;10303;51.960;8.372;2024-01-16T05:22:33;3.10;99.90
20288;DHT22;10303;51.960;8.372;2024-01-16T05:25:00;3.30;99.90
20288;DHT22;10303;51.960;8.372;2024-01-16T05:27:26;3.40;99.90
20288;DHT22;10303;51.960;8.372;2024-01-16T05:29:52;3.20;99.90
20288;DHT22;10303;51.960;8.372;2024-01-16T05:32:18;3.50;99.90
20288;DHT22;10303;51.960;8.372;2024-01-16T05:34:44;3.10;99.90
20288;DHT22;10303;51.960;8.372;2024-01-16T05:37:11;3.30;99.90
20288;DHT22;10303;51.960;8.372;2024-01-16T05:39:37;3.40;99.90
20288;DHT22;10303;51.960;8.372;2024-01-16T05:42:03;3.50;99.90
20288;DHT22;10303;51.960;8.372;2024-01-16T05:44:30;3.50;99.90
20288;DHT22;10303;51.960;8.372;2024-01-16T05:46:56;3.60;99.90
20288;DHT22;10303;51.960;8.372;2024-01-16T05:49:22;3.10;99.90
20288;DHT22;10303;51.960;8.372;2024-01-16T05:51:48;3.40;99.90
20288;DHT22;10303;51.960;8.372;2024-01-16T05:54:14;3.40;99.90
20288;DHT22;10303;51.960;8.372;2024-01-16T05:56:40;3.70;99.90
20288;DHT22;10303;51.960;8.372;2024-01-16T05:59:07;3.20;99.90
20288;DHT22;10303;51.960;8.372;2024-01-16T06:01:33;3.40;99.90
20288;DHT22;10303;51.960;8.372;2024-01-16T06:03:59;3.20;99.90
20288;DHT22;10303;51.960;8.372;2024-01-16T06:06:25;3.40;99.90
20288;DHT22;10303;51.960;8.372;2024-01-16T06:08:51;3.30;99.90
20288;DHT22;10303;51.960;8.372;2024-01-16T06:11:17;3.30;99.90
20288;DHT22;10303;51.960;8.372;2024-01-16T06:13:45;3.30;99.90
20288;DHT22;10303;51.960;8.372;2024-01-16T06:16:11;3.00;99.90
20288;DHT22;10303;51.960;8.372;2024-01-16T06:18:37;3.00;99.90
20288;DHT22;10303;51.960;8.372;2024-01-16T06:21:03;3.10;99.90
20288;DHT22;10303;51.960;8.372;2024-01-16T06:23:29;3.20;99.90
20288;DHT22;10303;51.960;8.372;2024-01-16T06:25:56;3.40;99.90
20288;DHT22;10303;51.960;8.372;2024-01-16T06:28:21;3.10;99.90
20288;DHT22;10303;51.960;8.372;2024-01-16T06:30:47;3.40;99.90
20288;DHT22;10303;51.960;8.372;2024-01-16T06:33:13;3.20;99.90
20288;DHT22;10303;51.960;8.372;2024-01-16T06:35:39;3.20;99.90
20288;DHT22;10303;51.960;8.372;2024-01-16T06:38:05;3.50;99.90
20288;DHT22;10303;51.960;8.372;2024-01-16T06:40:31;3.40;99.90
20288;DHT22;10303;51.960;8.372;2024-01-16T06:42:57;3.00;99.90
20288;DHT22;10303;51.960;8.372;2024-01-16T06:45:23;2.80;99.90
20288;DHT22;10303;51.960;8.372;2024-01-16T06:47:51;2.80;99.90
20288;DHT22;10303;51.960;8.372;2024-01-16T06:50:17;3.00;99.90
20288;DHT22;10303;51.960;8.372;2024-01-16T06:52:43;3.20;99.90
20288;DHT22;10303;51.960;8.372;2024-01-16T06:55:09;3.50;99.90
20288;DHT22;10303;51.960;8.372;2024-01-16T06:57:35;3.70;99.90
20288;DHT22;10303;51.960;8.372;2024-01-16T07:00:00;3.40;99.90
20288;DHT22;10303;51.960;8.372;2024-01-16T07:02:26;3.30;99.90
20288;DHT22;10303;51.960;8.372;2024-01-16T07:04:52;3.60;99.90
20288;DHT22;10303;51.960;8.372;2024-01-16T07:07:18;3.90;99.90
20288;DHT22;10303;51.960;8.372;2024-01-16T07:09:45;3.90;99.90
20288;DHT22;10303;51.960;8.372;2024-01-16T07:12:12;3.80;99.90
20288;DHT22;10303;51.960;8.372;2024-01-16T07:14:38;4.00;99.90
20288;DHT22;10303;51.960;8.372;2024-01-16T07:17:05;3.90;99.90
20288;DHT22;10303;51.960;8.372;2024-01-16T07:19:33;3.60;99.90
20288;DHT22;10303;51.960;8.372;2024-01-16T07:22:00;3.90;99.90
20288;DHT22;10303;51.960;8.372;2024-01-16T07:24:26;4.00;99.90
20288;DHT22;10303;51.960;8.372;2024-01-16T07:26:52;4.00;99.90
20288;DHT22;10303;51.960;8.372;2024-01-16T07:29:19;4.20;99.90
20288;DHT22;10303;51.960;8.372;2024-01-16T07:31:46;4.10;99.90
20288;DHT22;10303;51.960;8.372;2024-01-16T07:34:12;4.20;99.90
20288;DHT22;10303;51.960;8.372;2024-01-16T07:36:38;4.10;99.90
20288;DHT22;10303;51.960;8.372;2024-01-16T07:39:04;4.00;99.90
20288;DHT22;10303;51.960;8.372;2024-01-16T07:41:29;4.00;99.90
20288;DHT22;10303;51.960;8.372;2024-01-16T07:43:55;4.00;99.90
20288;DHT22;10303;51.960;8.372;2024-01-16T07:46:21;4.10;99.90
20288;DHT22;10303;51.960;8.372;2024-01-16T07:48:47;4.10;99.90
20288;DHT22;10303;51.960;8.372;2024-01-16T07:51:13;4.10;99.90
20288;DHT22;10303;51.960;8.372;2024-01-16T07:53:39;4.00;99.90
20288;DHT22;10303;51.960;8.372;2024-01-16T07:56:05;3.40;99.90
20288;DHT22;10303;51.960;8.372;2024-01-16T07:58:31;3.70;99.90
20288;DHT22;10303;51.960;8.372;2024-01-16T08:00:57;3.70;99.90
20288;DHT22;10303;51.960;8.372;2024-01-16T08:03:22;3.80;99.90
20288;DHT22;10303;51.960;8.372;2024-01-16T08:05:48;3.90;99.90
20288;DHT22;10303;51.960;8.372;2024-01-16T08:08:14;3.80;99.90
20288;DHT22;10303;51.960;8.372;2024-01-16T08:10:43;3.80;99.90
20288;DHT22;10303;51.960;8.372;2024-01-16T08:13:09;4.00;99.90
20288;DHT22;10303;51.960;8.372;2024-01-16T08:15:36;4.00;99.90
20288;DHT22;10303;51.960;8.372;2024-01-16T08:18:02;3.70;99.90
20288;DHT22;10303;51.960;8.372;2024-01-16T08:20:29;3.80;99.90
20288;DHT22;10303;51.960;8.372;2024-01-16T08:22:54;3.90;99.90
20288;DHT22;10303;51.960;8.372;2024-01-16T08:25:20;3.60;99.90
20288;DHT22;10303;51.960;8.372;2024-01-16T08:27:46;3.80;99.90
20288;DHT22;10303;51.960;8.372;2024-01-16T08:30:12;3.90;99.90
20288;DHT22;10303;51.960;8.372;2024-01-16T08:32:39;3.60;99.90
20288;DHT22;10303;51.960;8.372;2024-01-16T08:35:05;3.80;99.90
20288;DHT22;10303;51.960;8.372;2024-01-16T08:37:32;3.90;99.90
20288;DHT22;10303;51.960;8.372;2024-01-16T08:39:59;3.80;99.90
20288;DHT22;10303;51.960;8.372;2024-01-16T08:42:25;3.90;99.90
20288;DHT22;10303;51.960;8.372;2024-01-16T08:44:51;4.00;99.90
20288;DHT22;10303;51.960;8.372;2024-01-16T08:47:17;3.80;99.90
20288;DHT22;10303;51.960;8.372;2024-01-16T08:49:43;3.60;99.90
20288;DHT22;10303;51.960;8.372;2024-01-16T08:52:09;3.60;99.90
20288;DHT22;10303;51.960;8.372;2024-01-16T08:54:35;3.70;99.90
20288;DHT22;10303;51.960;8.372;2024-01-16T08:57:02;3.70;99.90
20288;DHT22;10303;51.960;8.372;2024-01-16T08:59:28;3.90;99.90
20288;DHT22;10303;51.960;8.372;2024-01-16T09:01:54;4.00;99.90
20288;DHT22;10303;51.960;8.372;2024-01-16T09:04:20;3.70;99.90
20288;DHT22;10303;51.960;8.372;2024-01-16T09:06:46;3.10;99.90
20288;DHT22;10303;51.960;8.372;2024-01-16T09:09:12;3.40;99.90
20288;DHT22;10303;51.960;8.372;2024-01-16T09:11:38;3.50;99.90
20288;DHT22;10303;51.960;8.372;2024-01-16T09:14:04;3.50;99.90
20288;DHT22;10303;51.960;8.372;2024-01-16T09:16:30;3.80;99.90
20288;DHT22;10303;51.960;8.372;2024-01-16T09:18:56;3.80;99.90
20288;DHT22;10303;51.960;8.372;2024-01-16T09:21:22;3.90;99.90
20288;DHT22;10303;51.960;8.372;2024-01-16T09:23:48;3.90;99.90
20288;DHT22;10303;51.960;8.372;2024-01-16T09:26:13;3.90;99.90
20288;DHT22;10303;51.960;8.372;2024-01-16T09:28:39;3.70;99.90
20288;DHT22;10303;51.960;8.372;2024-01-16T09:31:08;3.70;99.90
20288;DHT22;10303;51.960;8.372;2024-01-16T09:33:34;3.80;99.90
20288;DHT22;10303;51.960;8.372;2024-01-16T09:36:00;4.00;99.90
20288;DHT22;10303;51.960;8.372;2024-01-16T09:38:26;4.20;99.90
20288;DHT22;10303;51.960;8.372;2024-01-16T09:40:53;4.20;99.90
20288;DHT22;10303;51.960;8.372;2024-01-16T09:43:22;4.10;99.90
20288;DHT22;10303;51.960;8.372;2024-01-16T09:45:49;3.50;99.90
20288;DHT22;10303;51.960;8.372;2024-01-16T09:48:17;3.50;99.90
20288;DHT22;10303;51.960;8.372;2024-01-16T09:50:43;4.00;99.90
20288;DHT22;10303;51.960;8.372;2024-01-16T09:53:09;4.00;99.90
20288;DHT22;10303;51.960;8.372;2024-01-16T09:55:36;3.90;99.90
20288;DHT22;10303;51.960;8.372;2024-01-16T09:58:02;3.90;99.90
20288;DHT22;10303;51.960;8.372;2024-01-16T10:00:31;4.00;99.90
20288;DHT22;10303;51.960;8.372;2024-01-16T10:02:59;4.10;99.90
20288;DHT22;10303;51.960;8.372;2024-01-16T10:05:26;3.90;99.90
20288;DHT22;10303;51.960;8.372;2024-01-16T10:07:52;4.00;99.90
20288;DHT22;10303;51.960;8.372;2024-01-16T10:10:18;3.50;99.90
20288;DHT22;10303;51.960;8.372;2024-01-16T10:12:46;3.50;99.90
20288;DHT22;10303;51.960;8.372;2024-01-16T10:15:14;3.70;99.90
20288;DHT22;10303;51.960;8.372;2024-01-16T10:17:42;3.90;99.90
20288;DHT22;10303;51.960;8.372;2024-01-16T10:20:09;4.10;99.90
20288;DHT22;10303;51.960;8.372;2024-01-16T10:22:52;3.90;99.90
20288;DHT22;10303;51.960;8.372;2024-01-16T10:25:19;3.70;99.90
20288;DHT22;10303;51.960;8.372;2024-01-16T10:27:47;4.10;99.90
20288;DHT22;10303;51.960;8.372;2024-01-16T10:30:13;3.80;99.90
20288;DHT22;10303;51.960;8.372;2024-01-16T10:32:43;4.10;99.90
20288;DHT22;10303;51.960;8.372;2024-01-16T10:35:10;4.10;99.90
20288;DHT22;10303;51.960;8.372;2024-01-16T10:37:46;4.00;99.90
20288;DHT22;10303;51.960;8.372;2024-01-16T10:40:17;4.00;99.90
20288;DHT22;10303;51.960;8.372;2024-01-16T10:43:07;3.80;99.90
20288;DHT22;10303;51.960;8.372;2024-01-16T10:45:33;3.70;99.90
20288;DHT22;10303;51.960;8.372;2024-01-16T10:48:07;3.10;99.90
20288;DHT22;10303;51.960;8.372;2024-01-16T10:50:34;3.20;99.90
20288;DHT22;10303;51.960;8.372;2024-01-16T10:53:07;3.30;99.90
20288;DHT22;10303;51.960;8.372;2024-01-16T10:55:52;3.40;99.90
20288;DHT22;10303;51.960;8.372;2024-01-16T10:58:24;3.60;99.90
20288;DHT22;10303;51.960;8.372;2024-01-16T11:00:57;3.90;99.90
20288;DHT22;10303;51.960;8.372;2024-01-16T11:03:41;3.80;99.90
20288;DHT22;10303;51.960;8.372;2024-01-16T11:06:15;4.10;99.90
20288;DHT22;10303;51.960;8.372;2024-01-16T11:08:42;3.70;99.90
20288;DHT22;10303;51.960;8.372;2024-01-16T11:11:13;3.80;99.90
20288;DHT22;10303;51.960;8.372;2024-01-16T11:13:39;3.90;99.90
20288;DHT22;10303;51.960;8.372;2024-01-16T11:16:08;4.00;99.90
20288;DHT22;10303;51.960;8.372;2024-01-16T11:18:36;3.90;99.90
20288;DHT22;10303;51.960;8.372;2024-01-16T11:21:05;3.90;99.90
20288;DHT22;10303;51.960;8.372;2024-01-16T11:23:33;4.00;99.90
20288;DHT22;10303;51.960;8.372;2024-01-16T11:26:22;4.10;99.90
20288;DHT22;10303;51.960;8.372;2024-01-16T11:28:53;4.10;99.90
20288;DHT22;10303;51.960;8.372;2024-01-16T11:31:32;4.10;99.90
20288;DHT22;10303;51.960;8.372;2024-01-16T11:34:00;4.20;99.90
20288;DHT22;10303;51.960;8.372;2024-01-16T11:36:52;4.00;99.90
20288;DHT22;10303;51.960;8.372;2024-01-16T11:39:23;4.00;99.90
20288;DHT22;10303;51.960;8.372;2024-01-16T11:41:57;3.90;99.90
20288;DHT22;10303;51.960;8.372;2024-01-16T11:47:03;4.10;99.90
20288;DHT22;10303;51.960;8.372;2024-01-16T11:49:30;4.10;99.90
20288;DHT22;10303;51.960;8.372;2024-01-16T11:52:00;4.20;99.90
20288;DHT22;10303;51.960;8.372;2024-01-16T11:54:26;4.10;99.90
20288;DHT22;10303;51.960;8.372;2024-01-16T12:02:50;4.20;99.90
20288;DHT22;10303;51.960;8.372;2024-01-16T12:05:19;4.00;99.90
20288;DHT22;10303;51.960;8.372;2024-01-16T12:07:47;4.20;99.90
20288;DHT22;10303;51.960;8.372;2024-01-16T12:10:17;4.10;99.90
20288;DHT22;10303;51.960;8.372;2024-01-16T12:12:49;4.20;99.90
20288;DHT22;10303;51.960;8.372;2024-01-16T12:15:20;4.20;99.90
20288;DHT22;10303;51.960;8.372;2024-01-16T12:18:07;3.90;99.90
20288;DHT22;10303;51.960;8.372;2024-01-16T12:20:35;4.00;99.90
20288;DHT22;10303;51.960;8.372;2024-01-16T12:23:05;3.90;99.90
20288;DHT22;10303;51.960;8.372;2024-01-16T12:25:37;4.00;99.90
20288;DHT22;10303;51.960;8.372;2024-01-16T12:28:05;4.10;99.90
20288;DHT22;10303;51.960;8.372;2024-01-16T12:30:36;4.00;99.90
20288;DHT22;10303;51.960;8.372;2024-01-16T12:33:11;3.80;99.90
20288;DHT22;10303;51.960;8.372;2024-01-16T12:35:43;4.10;99.90
20288;DHT22;10303;51.960;8.372;2024-01-16T12:38:11;4.40;99.90
20288;DHT22;10303;51.960;8.372;2024-01-16T12:40:46;4.30;99.90
20288;DHT22;10303;51.960;8.372;2024-01-16T12:43:17;4.30;99.90
20288;DHT22;10303;51.960;8.372;2024-01-16T12:45:44;4.00;99.90
20288;DHT22;10303;51.960;8.372;2024-01-16T12:48:10;4.20;99.90
20288;DHT22;10303;51.960;8.372;2024-01-16T12:50:37;4.30;99.90
20288;DHT22;10303;51.960;8.372;2024-01-16T12:53:09;3.90;99.90
20288;DHT22;10303;51.960;8.372;2024-01-16T12:55:38;4.10;99.90
20288;DHT22;10303;51.960;8.372;2024-01-16T12:58:21;4.30;99.90
20288;DHT22;10303;51.960;8.372;2024-01-16T13:00:53;4.00;99.90
20288;DHT22;10303;51.960;8.372;2024-01-16T13:03:24;4.20;99.90
20288;DHT22;10303;51.960;8.372;2024-01-16T13:06:01;4.50;99.90
20288;DHT22;10303;51.960;8.372;2024-01-16T13:08:27;4.10;99.90
20288;DHT22;10303;51.960;8.372;2024-01-16T13:11:05;4.30;99.90
20288;DHT22;10303;51.960;8.372;2024-01-16T13:13:33;4.30;99.90
20288;DHT22;10303;51.960;8.372;2024-01-16T13:16:00;4.50;99.90
20288;DHT22;10303;51.960;8.372;2024-01-16T13:18:30;4.50;99.90
20288;DHT22;10303;51.960;8.372;2024-01-16T13:20:58;4.30;99.90
20288;DHT22;10303;51.960;8.372;2024-01-16T13:23:25;4.30;99.90
20288;DHT22;10303;51.960;8.372;2024-01-16T13:25:53;4.50;99.90
20288;DHT22;10303;51.960;8.372;2024-01-16T13:28:26;4.50;99.90
20288;DHT22;10303;51.960;8.372;2024-01-16T13:30:54;4.40;99.90
20288;DHT22;10303;51.960;8.372;2024-01-16T13:33:23;4.80;99.90
20288;DHT22;10303;51.960;8.372;2024-01-16T13:35:53;4.50;99.90
20288;DHT22;10303;51.960;8.372;2024-01-16T13:38:22;4.60;99.90
20288;DHT22;10303;51.960;8.372;2024-01-16T13:40:49;4.60;99.90
20288;DHT22;10303;51.960;8.372;2024-01-16T13:43:16;4.50;99.90
20288;DHT22;10303;51.960;8.372;2024-01-16T13:45:43;4.50;99.90
20288;DHT22;10303;51.960;8.372;2024-01-16T13:48:09;4.60;99.90
20288;DHT22;10303;51.960;8.372;2024-01-16T13:50:35;4.80;99.90
20288;DHT22;10303;51.960;8.372;2024-01-16T13:53:01;4.80;99.90
20288;DHT22;10303;51.960;8.372;2024-01-16T13:55:29;4.80;99.90
20288;DHT22;10303;51.960;8.372;2024-01-16T13:58:00;4.70;99.90
20288;DHT22;10303;51.960;8.372;2024-01-16T14:00:27;4.80;99.90
20288;DHT22;10303;51.960;8.372;2024-01-16T14:02:53;4.80;99.90
20288;DHT22;10303;51.960;8.372;2024-01-16T14:05:21;4.80;99.90
20288;DHT22;10303;51.960;8.372;2024-01-16T14:07:51;4.90;99.90
20288;DHT22;10303;51.960;8.372;2024-01-16T14:10:19;4.90;99.90
20288;DHT22;10303;51.960;8.372;2024-01-16T14:12:49;5.00;99.90
20288;DHT22;10303;51.960;8.372;2024-01-16T14:15:18;5.00;99.90
20288;DHT22;10303;51.960;8.372;2024-01-16T14:17:48;5.10;99.90
20288;DHT22;10303;51.960;8.372;2024-01-16T14:20:20;5.00;99.90
20288;DHT22;10303;51.960;8.372;2024-01-16T14:22:53;5.00;99.90
20288;DHT22;10303;51.960;8.372;2024-01-16T14:25:19;5.10;99.90
20288;DHT22;10303;51.960;8.372;2024-01-16T14:27:59;5.10;99.90
20288;DHT22;10303;51.960;8.372;2024-01-16T14:30:29;5.10;99.90
20288;DHT22;10303;51.960;8.372;2024-01-16T14:32:56;5.20;99.90
20288;DHT22;10303;51.960;8.372;2024-01-16T14:35:23;5.20;99.90
20288;DHT22;10303;51.960;8.372;2024-01-16T14:37:50;5.20;99.90
20288;DHT22;10303;51.960;8.372;2024-01-16T14:40:17;5.30;99.90
20288;DHT22;10303;51.960;8.372;2024-01-16T14:42:46;5.40;99.90
20288;DHT22;10303;51.960;8.372;2024-01-16T14:45:20;5.40;99.90
20288;DHT22;10303;51.960;8.372;2024-01-16T14:47:47;5.40;99.90
20288;DHT22;10303;51.960;8.372;2024-01-16T14:50:15;5.50;99.90
20288;DHT22;10303;51.960;8.372;2024-01-16T14:52:45;5.50;99.90
20288;DHT22;10303;51.960;8.372;2024-01-16T14:55:13;5.70;99.90
20288;DHT22;10303;51.960;8.372;2024-01-16T14:57:39;5.50;99.90
20288;DHT22;10303;51.960;8.372;2024-01-16T15:00:11;5.60;99.90
20288;DHT22;10303;51.960;8.372;2024-01-16T15:02:46;5.50;99.90
20288;DHT22;10303;51.960;8.372;2024-01-16T15:05:17;5.60;99.90
20288;DHT22;10303;51.960;8.372;2024-01-16T15:07:46;5.60;99.90
20288;DHT22;10303;51.960;8.372;2024-01-16T15:10:12;5.60;99.90
20288;DHT22;10303;51.960;8.372;2024-01-16T15:12:41;5.70;99.90
20288;DHT22;10303;51.960;8.372;2024-01-16T15:15:08;5.60;99.90
20288;DHT22;10303;51.960;8.372;2024-01-16T15:17:36;5.70;99.90
20288;DHT22;10303;51.960;8.372;2024-01-16T15:20:17;5.60;99.90
20288;DHT22;10303;51.960;8.372;2024-01-16T15:22:45;5.70;99.90
20288;DHT22;10303;51.960;8.372;2024-01-16T15:25:12;5.70;99.90
20288;DHT22;10303;51.960;8.372;2024-01-16T15:27:52;5.60;99.90
20288;DHT22;10303;51.960;8.372;2024-01-16T15:30:21;5.70;99.90
20288;DHT22;10303;51.960;8.372;2024-01-16T15:32:48;5.70;99.90
20288;DHT22;10303;51.960;8.372;2024-01-16T15:35:14;5.70;99.90
20288;DHT22;10303;51.960;8.372;2024-01-16T15:37:44;5.70;99.90
20288;DHT22;10303;51.960;8.372;2024-01-16T15:40:10;5.70;99.90
20288;DHT22;10303;51.960;8.372;2024-01-16T15:42:38;5.70;99.90
20288;DHT22;10303;51.960;8.372;2024-01-16T15:45:08;5.70;99.90
20288;DHT22;10303;51.960;8.372;2024-01-16T15:47:38;5.70;99.90
20288;DHT22;10303;51.960;8.372;2024-01-16T15:50:05;5.60;99.90
20288;DHT22;10303;51.960;8.372;2024-01-16T15:52:31;5.60;99.90
20288;DHT22;10303;51.960;8.372;2024-01-16T15:54:59;5.70;99.90